Time;durP1;ratioP1;P1;durP2;ratioP2;P2;SDS_P1;SDS_P2;PMS_P1;PMS_P2;Temp;Humidity;BMP_temperature;BMP_pressure;BME280_temperature;BME280_humidity;BME280_pressure;Samples;Min_cycle;Max_cycle;Signal;HPM_P1;HPM_P2
2023/10/01 00:00:28;;;;;;;4.05;2.33;;;;;;;18.51;54.58;100244.84;4467900;32;33960;-75
2023/10/01 00:02:59;;;;;;;5.05;2.28;;;;;;;18.68;54.05;100240.44;4466485;31;34142;-75
2023/10/01 00:05:27;;;;;;;2.90;1.65;;;;;;;18.68;53.74;100238.56;4468426;31;33932;-75
2023/10/01 00:07:54;;;;;;;3.17;1.80;;;;;;;18.57;53.82;100236.09;4481973;32;33188;-74
2023/10/01 00:10:22;;;;;;;3.95;1.98;;;;;;;18.70;54.03;100233.87;4471300;31;33836;-75
2023/10/01 00:12:54;;;;;;;7.72;2.50;;;;;;;18.48;53.85;100234.31;4469972;31;34129;-75
2023/10/01 00:15:25;;;;;;;4.07;2.10;;;;;;;18.53;53.56;100238.28;4471505;32;32073;-74
2023/10/01 00:17:53;;;;;;;3.12;1.90;;;;;;;18.46;53.54;100234.50;4465901;32;33875;-73
2023/10/01 00:20:23;;;;;;;2.67;1.87;;;;;;;18.34;53.64;100247.41;4466448;32;34537;-74
2023/10/01 00:23:00;;;;;;;6.65;2.37;;;;;;;18.13;54.16;100246.81;4472735;32;34964;-74
2023/10/01 00:25:29;;;;;;;6.35;3.53;;;;;;;18.26;53.51;100241.03;4465516;32;33531;-73
2023/10/01 00:27:58;;;;;;;7.78;4.15;;;;;;;17.90;54.21;100247.19;4465276;32;33101;-74
2023/10/01 00:30:32;;;;;;;7.68;4.22;;;;;;;17.82;54.49;100257.09;4463880;32;33799;-73
2023/10/01 00:33:06;;;;;;;7.82;4.55;;;;;;;17.72;54.90;100253.50;4473988;31;35004;-74
2023/10/01 00:35:39;;;;;;;5.35;2.15;;;;;;;17.48;55.89;100252.19;4479231;31;34245;-73
2023/10/01 00:38:08;;;;;;;3.35;1.85;;;;;;;17.84;54.87;100250.50;4472394;32;32788;-73
2023/10/01 00:40:36;;;;;;;2.40;1.48;;;;;;;17.44;55.60;100240.78;4471200;31;35016;-73
2023/10/01 00:43:04;;;;;;;4.62;1.67;;;;;;;17.85;54.37;100244.09;4465953;32;33870;-72
2023/10/01 00:45:32;;;;;;;1.42;1.12;;;;;;;17.45;55.14;100239.78;4471980;32;34133;-73
2023/10/01 00:48:14;;;;;;;6.12;3.45;;;;;;;17.34;55.52;100247.25;4465881;32;34191;-73
2023/10/01 00:50:42;;;;;;;3.50;1.55;;;;;;;17.12;55.70;100241.16;4474582;32;34053;-72
2023/10/01 00:53:10;;;;;;;4.57;2.12;;;;;;;17.30;55.23;100243.94;4470249;31;33994;-72
2023/10/01 00:55:39;;;;;;;4.12;1.83;;;;;;;17.14;55.43;100241.88;4471535;32;33498;-73
2023/10/01 00:58:10;;;;;;;1.08;0.95;;;;;;;17.13;55.50;100244.72;4469514;32;33193;-72
2023/10/01 01:00:38;;;;;;;1.42;1.02;;;;;;;17.22;55.13;100252.81;4466490;32;34655;-73
2023/10/01 01:03:07;;;;;;;7.97;4.72;;;;;;;17.22;54.79;100254.66;4473317;32;32923;-73
2023/10/01 01:05:42;;;;;;;8.20;4.28;;;;;;;17.09;55.36;100260.38;4478347;32;33591;-73
2023/10/01 01:08:21;;;;;;;8.10;4.78;;;;;;;17.03;55.33;100268.22;4476036;31;34313;-73
2023/10/01 01:10:51;;;;;;;2.80;1.65;;;;;;;16.84;56.25;100269.06;4477895;31;34863;-74
2023/10/01 01:13:23;;;;;;;3.20;1.85;;;;;;;16.68;56.12;100275.00;4480683;32;35417;-70
2023/10/01 01:15:52;;;;;;;4.95;1.80;;;;;;;16.93;55.33;100270.91;4475057;31;33445;-75
2023/10/01 01:18:21;;;;;;;1.02;0.77;;;;;;;16.51;56.52;100268.44;4471734;32;34072;-76
2023/10/01 01:20:57;;;;;;;8.23;3.78;;;;;;;16.88;55.33;100273.19;4467919;32;35457;-74
2023/10/01 01:23:30;;;;;;;1.23;0.75;;;;;;;16.69;55.85;100274.87;4477041;32;34893;-73
2023/10/01 01:25:59;;;;;;;4.95;3.20;;;;;;;16.89;55.06;100274.91;4467851;32;33790;-73
2023/10/01 01:28:30;;;;;;;5.50;3.40;;;;;;;17.08;54.18;100274.03;4478260;32;33308;-73
2023/10/01 01:31:00;;;;;;;4.20;1.60;;;;;;;17.20;53.51;100272.88;4469168;32;33598;-73
2023/10/01 01:33:40;;;;;;;0.65;0.62;;;;;;;17.37;53.07;100277.56;4474022;31;35263;-73
2023/10/01 01:36:09;;;;;;;8.52;3.90;;;;;;;17.42;52.76;100279.81;4468613;32;33504;-73
2023/10/01 01:39:12;;;;;;;3.58;2.42;;;;;;;17.35;52.84;100279.56;4475358;31;33271;-72
2023/10/01 01:41:47;;;;;;;6.62;2.90;;;;;;;17.45;52.51;100279.53;4475230;32;33659;-71
2023/10/01 01:44:16;;;;;;;;;;;;;;;17.30;52.91;100284.53;4466830;32;34973;-71
2023/10/01 01:46:59;;;;;;;3.12;1.73;;;;;;;17.37;52.55;100282.13;4475740;32;34584;-71
2023/10/01 01:49:28;;;;;;;4.03;1.95;;;;;;;17.38;52.29;100286.53;4465625;32;33883;-71
2023/10/01 01:52:03;;;;;;;2.60;1.52;;;;;;;17.49;52.04;100280.94;4471041;32;33177;-71
2023/10/01 01:54:38;;;;;;;3.92;1.98;;;;;;;17.02;52.94;100282.72;4469171;31;34078;-71
2023/10/01 01:57:13;;;;;;;3.55;1.80;;;;;;;17.20;52.73;100281.84;4470799;32;33802;-71
2023/10/01 01:59:41;;;;;;;7.53;4.65;;;;;;;17.31;52.06;100275.44;4477376;32;33059;-75
2023/10/01 02:02:10;;;;;;;7.12;3.95;;;;;;;17.18;52.59;100272.19;4478236;32;33550;-75
2023/10/01 02:04:58;;;;;;;4.78;2.08;;;;;;;17.03;52.91;100266.34;4473365;32;33815;-75
2023/10/01 02:07:28;;;;;;;2.50;1.50;;;;;;;17.13;52.48;100264.47;4475887;32;34672;-75
2023/10/01 02:09:56;;;;;;;4.72;1.92;;;;;;;17.14;52.35;100268.03;4473375;32;32649;-75
2023/10/01 02:12:24;;;;;;;7.37;3.97;;;;;;;17.19;52.20;100269.31;4476840;31;33408;-74
2023/10/01 02:14:54;;;;;;;9.07;4.30;;;;;;;16.92;53.11;100277.34;4478996;32;33837;-75
2023/10/01 02:17:25;;;;;;;1.12;1.02;;;;;;;16.85;53.24;100282.44;4467516;32;33845;-75
2023/10/01 02:19:55;;;;;;;6.87;4.07;;;;;;;16.74;53.27;100267.19;4469348;32;33026;-75
2023/10/01 02:22:24;;;;;;;8.15;1.75;;;;;;;16.70;53.48;100279.28;4467515;32;33777;-76
2023/10/01 02:24:54;;;;;;;6.80;3.67;;;;;;;16.84;52.93;100279.88;4474558;32;34759;-76
2023/10/01 02:27:26;;;;;;;4.72;2.47;;;;;;;16.66;53.36;100285.09;4482667;31;33953;-76
2023/10/01 02:35:36;;;;;;;4.60;1.33;;;;;;;16.63;53.34;100270.03;4465934;32;33948;-74
2023/10/01 02:38:05;;;;;;;5.32;2.33;;;;;;;16.88;52.45;100274.03;4475280;32;33595;-74
2023/10/01 02:40:37;;;;;;;3.80;2.30;;;;;;;16.30;54.26;100273.94;4482317;31;33194;-73
2023/10/01 02:43:09;;;;;;;3.97;2.37;;;;;;;16.81;52.71;100275.59;4476684;32;35604;-73
2023/10/01 02:45:41;;;;;;;3.35;1.70;;;;;;;17.01;52.13;100284.56;4477089;31;35198;-73
2023/10/01 02:48:18;;;;;;;4.00;1.48;;;;;;;16.83;52.75;100287.13;4471905;32;33315;-73
2023/10/01 02:50:54;;;;;;;3.00;1.20;;;;;;;16.83;52.57;100289.00;4472201;32;34106;-73
2023/10/01 02:53:23;;;;;;;2.67;1.33;;;;;;;17.03;51.49;100296.09;4477102;32;33900;-73
2023/10/01 02:55:51;;;;;;;2.87;1.52;;;;;;;17.07;51.09;100289.41;4471024;32;35062;-73
2023/10/01 02:58:27;;;;;;;5.10;3.17;;;;;;;17.10;51.36;100291.81;4476287;32;33867;-73
2023/10/01 03:00:55;;;;;;;1.75;1.27;;;;;;;16.96;51.34;100286.84;4469073;32;33425;-73
2023/10/01 03:03:32;;;;;;;2.62;1.42;;;;;;;17.19;50.64;100288.25;4470470;32;33543;-73
2023/10/01 03:06:08;;;;;;;2.28;1.42;;;;;;;17.26;50.60;100279.56;4468958;31;33742;-73
2023/10/01 03:08:41;;;;;;;2.15;1.20;;;;;;;17.14;50.44;100284.28;4470308;32;34224;-73
2023/10/01 03:11:11;;;;;;;9.85;1.75;;;;;;;16.83;51.23;100281.72;4483351;31;32999;-74
2023/10/01 03:13:40;;;;;;;3.92;1.45;;;;;;;16.79;51.28;100285.72;4481024;31;34297;-74
2023/10/01 03:18:55;;;;;;;2.65;1.48;;;;;;;16.51;51.67;100290.91;4469362;32;32538;-73
2023/10/01 03:24:10;;;;;;;2.85;1.00;;;;;;;15.97;53.20;100288.63;4473428;31;33628;-73
2023/10/01 03:26:44;;;;;;;3.60;1.95;;;;;;;16.54;51.18;100281.69;4475527;32;33059;-74
2023/10/01 03:29:17;;;;;;;4.40;1.50;;;;;;;16.57;51.22;100286.81;4473313;32;33553;-74
2023/10/01 03:31:46;;;;;;;5.55;1.42;;;;;;;16.68;51.12;100283.94;4480564;32;33953;-73
2023/10/01 03:34:28;;;;;;;8.40;1.05;;;;;;;16.47;51.58;100281.37;4475722;32;34595;-74
2023/10/01 03:37:00;;;;;;;2.53;1.52;;;;;;;16.80;50.79;100283.88;4480496;32;34092;-74
2023/10/01 03:39:28;;;;;;;4.95;2.37;;;;;;;16.73;51.47;100278.16;4468031;32;33807;-73
2023/10/01 03:42:13;;;;;;;3.65;1.62;;;;;;;16.82;51.06;100274.63;4474418;32;32099;-74
2023/10/01 03:47:29;;;;;;;4.70;2.03;;;;;;;16.76;51.07;100272.50;4477914;31;34716;-67
2023/10/01 03:49:57;;;;;;;2.42;1.37;;;;;;;16.89;51.10;100274.91;4475289;31;33713;-68
2023/10/01 03:52:29;;;;;;;8.27;2.33;;;;;;;16.87;51.19;100275.03;4467481;32;32987;-69
2023/10/01 03:57:25;;;;;;;3.75;2.10;;;;;;;16.74;52.09;100282.53;4467736;32;35234;-68
2023/10/01 03:59:56;;;;;;;4.03;1.75;;;;;;;16.98;50.71;100276.72;4469058;32;33540;-69
2023/10/01 04:02:46;;;;;;;3.40;1.85;;;;;;;16.81;51.11;100278.31;4467212;32;34096;-68
2023/10/01 04:05:21;;;;;;;2.35;1.35;;;;;;;17.07;50.44;100278.59;4473731;32;33527;-68
2023/10/01 04:07:49;;;;;;;3.00;1.62;;;;;;;17.03;50.65;100279.88;4467733;32;33941;-68
2023/10/01 04:10:38;;;;;;;6.28;2.00;;;;;;;17.18;50.30;100283.84;4469490;32;33520;-68
2023/10/01 04:13:20;;;;;;;5.70;1.67;;;;;;;17.07;50.38;100278.59;4467756;32;33836;-70
2023/10/01 04:15:55;;;;;;;4.03;1.42;;;;;;;17.22;49.66;100284.41;4467848;32;33956;-69
2023/10/01 04:18:24;;;;;;;2.20;1.05;;;;;;;17.06;49.85;100289.56;4482960;31;34990;-67
2023/10/01 04:23:48;;;;;;;2.97;1.85;;;;;;;16.57;51.39;100285.94;4425073;32;34137;-67
2023/10/01 04:26:17;;;;;;;7.00;2.15;;;;;;;16.86;50.43;100286.00;4424395;32;33479;-67
2023/10/01 04:28:54;;;;;;;1.35;1.08;;;;;;;16.83;50.60;100292.53;4432503;32;33819;-67
2023/10/01 04:34:11;;;;;;;2.35;1.25;;;;;;;16.87;50.54;100296.66;4429401;32;34007;-67
2023/10/01 04:36:43;;;;;;;3.53;2.08;;;;;;;16.70;51.42;100305.44;4420647;32;34631;-67
2023/10/01 04:39:11;;;;;;;5.55;1.83;;;;;;;16.14;54.71;100308.72;4430017;32;35325;-66
2023/10/01 04:41:39;;;;;;;6.43;2.42;;;;;;;16.51;51.92;100308.97;4432631;32;34535;-66
2023/10/01 04:44:07;;;;;;;7.97;1.87;;;;;;;15.72;54.34;100308.81;4432534;32;33792;-67
2023/10/01 04:46:40;;;;;;;3.70;2.15;;;;;;;15.93;53.25;100312.34;4434649;32;33720;-72
2023/10/01 04:49:26;;;;;;;5.43;2.33;;;;;;;16.14;52.67;100324.91;4434546;32;34005;-66
2023/10/01 04:52:10;;;;;;;3.95;1.83;;;;;;;16.04;52.62;100323.03;4434939;32;33577;-66
2023/10/01 04:54:40;;;;;;;5.78;1.58;;;;;;;16.58;52.59;100339.00;4415564;32;33442;-67
2023/10/01 04:57:08;;;;;;;3.25;1.75;;;;;;;16.61;51.20;100333.31;4415538;32;33979;-67
2023/10/01 04:59:56;;;;;;;2.58;1.33;;;;;;;16.73;50.91;100332.19;4410701;32;34131;-67
2023/10/01 05:02:25;;;;;;;4.35;1.92;;;;;;;16.92;50.39;100336.81;4462354;32;33380;-67
2023/10/01 05:05:08;;;;;;;1.67;1.37;;;;;;;17.04;50.17;100335.66;4461195;32;32938;-67
2023/10/01 05:07:38;;;;;;;8.90;3.30;;;;;;;17.06;49.97;100330.97;4465435;32;34636;-67
2023/10/01 05:10:09;;;;;;;5.37;1.95;;;;;;;17.03;49.93;100341.22;4461323;32;33734;-67
2023/10/01 05:12:43;;;;;;;8.48;2.58;;;;;;;17.06;49.82;100340.94;4464192;32;33613;-66
2023/10/01 05:15:25;;;;;;;1.20;0.90;;;;;;;17.09;49.67;100335.25;4453181;32;33978;-67
2023/10/01 05:17:55;;;;;;;7.37;1.80;;;;;;;17.13;49.55;100342.91;4465911;32;33812;-67
2023/10/01 05:20:27;;;;;;;3.20;1.75;;;;;;;17.06;49.94;100338.25;4461141;32;32094;-67
2023/10/01 05:22:58;;;;;;;2.03;1.40;;;;;;;17.05;50.16;100339.25;4465863;32;34484;-66
2023/10/01 05:25:27;;;;;;;3.40;1.55;;;;;;;17.10;49.91;100334.25;4466149;32;33257;-67
2023/10/01 05:27:56;;;;;;;4.03;1.58;;;;;;;16.95;50.38;100340.09;4458511;32;33975;-67
2023/10/01 05:30:42;;;;;;;2.72;1.27;;;;;;;16.84;50.73;100345.63;4457880;32;34118;-67
2023/10/01 05:33:13;;;;;;;2.78;1.27;;;;;;;16.93;50.63;100342.06;4467746;32;33585;-67
2023/10/01 05:35:44;;;;;;;1.77;1.15;;;;;;;16.70;51.07;100348.69;4468458;32;33139;-67
2023/10/01 05:38:14;;;;;;;3.60;1.73;;;;;;;16.90;51.04;100341.50;4471218;32;34626;-73
2023/10/01 05:40:44;;;;;;;4.18;1.62;;;;;;;16.51;52.19;100336.84;4469441;32;33762;-67
2023/10/01 05:43:15;;;;;;;2.28;1.27;;;;;;;16.83;51.15;100346.63;4475217;32;33302;-67
2023/10/01 05:45:50;;;;;;;3.87;1.58;;;;;;;17.12;50.40;100346.63;4468517;32;33480;-67
2023/10/01 05:48:19;;;;;;;5.43;2.15;;;;;;;17.28;50.07;100342.50;4476931;32;33662;-67
2023/10/01 05:50:49;;;;;;;5.55;1.75;;;;;;;17.42;49.67;100352.87;4470455;32;33944;-67
2023/10/01 05:53:18;;;;;;;3.22;1.27;;;;;;;17.12;51.78;100359.31;4477833;32;33595;-67
2023/10/01 05:55:46;;;;;;;4.65;1.42;;;;;;;17.54;49.65;100357.12;4470127;32;32968;-67
2023/10/01 05:58:14;;;;;;;2.97;1.27;;;;;;;17.63;49.29;100352.72;4467035;32;34724;-67
2023/10/01 06:00:56;;;;;;;2.45;1.23;;;;;;;17.67;49.15;100354.97;4468032;32;34950;-67
2023/10/01 06:03:25;;;;;;;6.70;2.17;;;;;;;17.61;49.75;100354.72;4467725;32;33897;-67
2023/10/01 06:05:59;;;;;;;8.57;1.98;;;;;;;17.61;49.54;100354.72;4466704;32;34402;-68
2023/10/01 06:08:32;;;;;;;2.30;1.17;;;;;;;17.64;49.33;100367.94;4479545;32;33588;-68
2023/10/01 06:11:07;;;;;;;2.90;0.95;;;;;;;17.62;49.52;100369.94;4474849;32;34285;-67
2023/10/01 06:13:39;;;;;;;3.25;1.33;;;;;;;17.53;50.04;100370.81;4469343;32;34599;-68
2023/10/01 06:16:16;;;;;;;4.35;1.50;;;;;;;17.59;49.82;100365.69;4473916;32;33420;-67
2023/10/01 06:18:50;;;;;;;4.70;1.35;;;;;;;17.57;49.84;100369.53;4468754;32;34154;-67
2023/10/01 06:21:23;;;;;;;4.07;1.90;;;;;;;17.46;50.00;100367.81;4470546;32;34082;-67
2023/10/01 06:23:52;;;;;;;3.30;1.75;;;;;;;17.25;50.81;100364.44;4483257;32;34832;-67
2023/10/01 06:26:29;;;;;;;5.70;1.70;;;;;;;17.23;51.04;100362.72;4469726;32;33141;-67
2023/10/01 06:28:57;;;;;;;3.08;1.73;;;;;;;17.28;51.09;100356.03;4471954;32;33490;-67
2023/10/01 06:31:27;;;;;;;3.50;1.42;;;;;;;17.27;51.13;100366.00;4469300;32;37236;-67
2023/10/01 06:33:55;;;;;;;3.50;1.17;;;;;;;17.19;51.37;100368.56;4470864;32;34695;-67
2023/10/01 06:36:25;;;;;;;4.90;2.58;;;;;;;17.30;50.67;100368.41;4480890;32;33492;-68
2023/10/01 06:38:55;;;;;;;3.85;1.48;;;;;;;17.36;50.94;100365.13;4475512;32;34032;-68
2023/10/01 06:41:26;;;;;;;2.70;1.33;;;;;;;17.25;52.03;100373.41;4478861;31;33895;-68
2023/10/01 06:43:56;;;;;;;2.83;1.17;;;;;;;17.22;52.89;100368.28;4470843;32;33723;-68
2023/10/01 06:46:28;;;;;;;4.15;2.03;;;;;;;17.59;51.39;100378.34;4469952;32;32998;-68
2023/10/01 06:48:58;;;;;;;5.47;2.03;;;;;;;17.84;50.35;100372.34;4474469;32;33876;-67
2023/10/01 06:51:26;;;;;;;10.15;1.75;;;;;;;17.91;49.97;100370.78;4479104;31;33849;-67
2023/10/01 06:54:05;;;;;;;6.82;2.08;;;;;;;18.18;49.31;100371.84;4478801;32;35449;-68
2023/10/01 06:56:33;;;;;;;3.95;1.33;;;;;;;18.33;48.93;100370.34;4470028;31;33127;-68
2023/10/01 07:01:47;;;;;;;5.47;2.78;;;;;;;18.17;49.91;100378.25;4477538;31;34163;-68
2023/10/01 07:04:19;;;;;;;4.00;1.48;;;;;;;18.36;48.92;100386.31;4481921;31;33378;-68
2023/10/01 07:06:50;;;;;;;1.98;0.90;;;;;;;18.04;51.42;100393.97;4468276;32;32670;-68
2023/10/01 07:09:27;;;;;;;4.70;1.95;;;;;;;17.83;51.48;100400.44;4494448;31;34720;-68
2023/10/01 07:11:57;;;;;;;4.65;1.52;;;;;;;18.23;50.28;100391.19;4477688;32;34101;-68
2023/10/01 07:14:38;;;;;;;3.72;1.50;;;;;;;18.36;48.79;100393.56;4478077;31;33532;-68
2023/10/01 07:17:08;;;;;;;2.85;1.52;;;;;;;18.23;48.60;100385.78;4470390;31;33405;-67
2023/10/01 07:19:36;;;;;;;4.75;1.90;;;;;;;18.62;48.41;100382.91;4484351;31;33860;-68
2023/10/01 07:22:06;;;;;;;6.40;1.70;;;;;;;18.49;49.54;100385.97;4466359;32;35204;-68
2023/10/01 07:24:35;;;;;;;8.90;1.48;;;;;;;18.33;49.30;100383.91;4473071;31;33320;-68
2023/10/01 07:27:03;;;;;;;3.03;2.05;;;;;;;18.58;48.25;100384.19;4472279;32;32965;-68
2023/10/01 07:29:34;;;;;;;8.30;3.05;;;;;;;18.60;47.94;100384.91;4472341;31;34714;-68
2023/10/01 07:32:07;;;;;;;10.60;3.25;;;;;;;18.90;46.91;100385.63;4471275;32;34228;-68
2023/10/01 07:34:39;;;;;;;5.82;2.05;;;;;;;18.25;49.05;100383.78;4470999;31;33661;-68
2023/10/01 07:37:08;;;;;;;6.97;2.47;;;;;;;18.39;48.40;100385.13;4466164;32;33127;-67
2023/10/01 07:39:37;;;;;;;16.40;2.05;;;;;;;18.93;46.97;100393.44;4465287;32;33742;-68
2023/10/01 07:42:05;;;;;;;2.65;1.08;;;;;;;18.96;46.45;100395.84;4468171;31;33823;-67
2023/10/01 07:44:35;;;;;;;5.47;1.67;;;;;;;18.81;46.81;100404.53;4476564;32;33321;-68
2023/10/01 07:47:03;;;;;;;3.03;1.67;;;;;;;18.69;47.42;100397.56;4467423;32;33156;-67
2023/10/01 07:49:50;;;;;;;5.03;1.70;;;;;;;18.56;47.69;100394.34;4472818;32;34976;-67
2023/10/01 07:52:18;;;;;;;4.60;1.52;;;;;;;18.16;48.06;100395.50;4481886;31;34905;-68
2023/10/01 07:54:47;;;;;;;0.75;0.70;;;;;;;18.18;48.97;100395.38;4477970;32;33521;-67
2023/10/01 07:57:27;;;;;;;4.55;1.20;;;;;;;18.34;47.78;100401.00;4469405;31;34474;-68
2023/10/01 07:59:55;;;;;;;4.68;2.33;;;;;;;17.92;49.02;100409.56;4464954;32;35205;-68
2023/10/01 08:02:27;;;;;;;5.87;2.03;;;;;;;18.32;48.10;100400.28;4467385;31;34888;-69
2023/10/01 08:04:58;;;;;;;4.10;1.85;;;;;;;18.42;47.07;100397.53;4484731;31;34537;-68
2023/10/01 08:07:31;;;;;;;4.97;1.70;;;;;;;18.21;48.14;100404.06;4468697;31;33918;-68
2023/10/01 08:09:59;;;;;;;7.72;1.95;;;;;;;18.37;47.75;100393.44;4471759;32;33529;-68
2023/10/01 08:17:54;;;;;;;4.65;1.62;;;;;;;18.65;47.61;100415.16;4466168;32;33055;-68
2023/10/01 08:20:31;;;;;;;3.67;1.65;;;;;;;18.10;48.82;100417.75;4477419;31;33512;-67
2023/10/01 08:23:12;;;;;;;3.85;1.80;;;;;;;18.58;48.40;100406.72;4473854;32;35595;-68
2023/10/01 08:25:42;;;;;;;3.55;1.12;;;;;;;18.63;46.59;100403.59;4475430;31;33747;-68
2023/10/01 08:30:43;;;;;;;3.87;1.42;;;;;;;18.84;45.66;100393.37;4465180;32;33705;-68
2023/10/01 08:33:21;;;;;;;3.03;1.77;;;;;;;19.39;45.23;100399.66;4474190;32;33931;-68
2023/10/01 08:36:01;;;;;;;4.22;1.75;;;;;;;19.24;45.29;100402.94;4474900;31;33780;-68
2023/10/01 08:38:37;;;;;;;3.35;1.65;;;;;;;19.12;46.09;100406.87;4464928;32;34029;-69
2023/10/01 08:41:06;;;;;;;0.68;0.57;;;;;;;19.11;45.45;100410.59;4472565;32;33638;-69
2023/10/01 08:43:37;;;;;;;4.25;1.75;;;;;;;18.87;45.90;100411.16;4479378;31;33801;-68
2023/10/01 08:46:17;;;;;;;2.72;1.37;;;;;;;19.40;45.14;100409.53;4467043;31;33467;-70
2023/10/01 08:48:45;;;;;;;3.75;1.75;;;;;;;18.79;47.46;100428.22;4468611;32;33100;-69
2023/10/01 08:51:16;;;;;;;2.47;1.12;;;;;;;19.44;45.42;100430.75;4468775;32;34871;-68
2023/10/01 08:53:46;;;;;;;5.25;2.17;;;;;;;18.88;46.65;100439.19;4475463;32;35039;-69
2023/10/01 08:56:14;;;;;;;6.07;2.85;;;;;;;18.97;44.96;100440.94;4472666;32;33866;-68
2023/10/01 08:58:48;;;;;;;6.32;2.03;;;;;;;19.08;44.73;100446.19;4446896;32;34004;-68
2023/10/01 09:01:20;;;;;;;5.18;1.60;;;;;;;18.58;46.09;100430.28;4454354;32;33840;-68
2023/10/01 09:03:48;;;;;;;2.05;1.33;;;;;;;19.07;44.67;100430.91;4449110;32;34734;-67
2023/10/01 09:06:25;;;;;;;2.08;1.17;;;;;;;18.94;45.06;100427.69;4452557;32;34541;-68
2023/10/01 09:08:59;;;;;;;3.30;0.90;;;;;;;18.62;45.00;100429.00;4449810;32;33122;-70
2023/10/01 09:11:47;;;;;;;3.42;1.27;;;;;;;19.36;44.78;100427.13;4458035;32;33768;-69
2023/10/01 09:14:15;;;;;;;6.95;2.53;;;;;;;19.30;44.25;100432.16;4456058;32;33911;-69
2023/10/01 09:16:45;;;;;;;3.15;1.83;;;;;;;19.41;44.14;100432.94;4460548;32;33502;-69
2023/10/01 09:22:07;;;;;;;4.12;1.35;;;;;;;19.53;43.36;100413.53;4455283;32;33447;-70
2023/10/01 09:24:38;;;;;;;3.85;1.58;;;;;;;19.30;44.40;100424.03;4455721;32;35168;-71
2023/10/01 09:27:18;;;;;;;2.83;1.30;;;;;;;19.18;45.12;100411.69;4461472;32;33729;-70
2023/10/01 09:29:56;;;;;;;5.37;2.37;;;;;;;19.77;44.36;100412.94;4455450;32;34007;-70
2023/10/01 09:32:49;;;;;;;6.18;2.55;;;;;;;19.68;43.48;100413.87;4470949;32;33637;-71
2023/10/01 09:35:30;;;;;;;2.95;1.37;;;;;;;20.29;42.83;100416.66;4480688;32;35327;-71
2023/10/01 09:38:10;;;;;;;5.00;2.55;;;;;;;20.27;43.11;100408.69;4477159;31;34271;-70
2023/10/01 09:40:43;;;;;;;6.30;2.15;;;;;;;19.98;42.48;100409.84;4472539;31;33202;-71
2023/10/01 09:43:18;;;;;;;4.20;1.62;;;;;;;20.53;41.60;100416.81;4466892;32;33749;-71
2023/10/01 09:45:49;;;;;;;6.03;2.05;;;;;;;20.74;41.60;100420.97;4472933;32;33973;-70
2023/10/01 09:48:29;;;;;;;4.57;1.85;;;;;;;20.94;41.29;100420.56;4474083;32;34814;-69
2023/10/01 09:51:13;;;;;;;4.18;1.90;;;;;;;20.60;41.57;100417.03;4473845;32;33449;-71
2023/10/01 09:54:01;;;;;;;4.55;1.77;;;;;;;20.61;41.57;100414.16;4470783;32;33713;-71
2023/10/01 09:56:30;;;;;;;7.53;2.00;;;;;;;20.57;41.60;100410.03;4471070;32;33823;-71
2023/10/01 09:59:01;;;;;;;4.60;1.55;;;;;;;20.59;42.11;100412.63;4474581;32;33919;-72
2023/10/01 10:01:34;;;;;;;7.43;2.05;;;;;;;20.93;42.39;100415.31;4473266;31;33961;-70
2023/10/01 10:04:07;;;;;;;4.00;1.55;;;;;;;20.61;43.42;100416.87;4468506;32;33831;-71
2023/10/01 10:06:36;;;;;;;9.93;1.87;;;;;;;21.08;41.78;100410.03;4471277;32;33859;-71
2023/10/01 10:09:08;;;;;;;3.30;1.45;;;;;;;20.67;41.80;100420.78;4472565;31;33567;-71
2023/10/01 10:11:38;;;;;;;7.18;1.73;;;;;;;21.04;40.71;100420.41;4473055;31;33176;-70
2023/10/01 10:14:27;;;;;;;10.50;2.12;;;;;;;20.79;40.53;100416.75;4478877;32;34724;-70
2023/10/01 10:20:16;;;;;;;6.40;1.80;;;;;;;21.21;40.01;100420.44;4474441;32;34205;-71
2023/10/01 10:23:16;;;;;;;8.20;2.87;;;;;;;21.21;40.28;100431.34;4482350;32;34066;-71
2023/10/01 10:25:44;;;;;;;10.70;2.15;;;;;;;21.18;39.57;100429.78;4476504;32;33571;-70
2023/10/01 10:28:25;;;;;;;10.50;2.00;;;;;;;21.56;39.42;100425.62;4470402;32;33339;-70
2023/10/01 10:31:33;;;;;;;6.12;1.70;;;;;;;20.90;40.09;100423.78;4468865;32;33710;-71
2023/10/01 10:34:22;;;;;;;6.10;2.12;;;;;;;21.02;40.12;100421.59;4473005;32;33383;-71
2023/10/01 10:36:54;;;;;;;5.07;1.92;;;;;;;21.52;39.15;100412.53;4480568;32;34240;-70
2023/10/01 10:40:04;;;;;;;3.30;1.00;;;;;;;21.37;39.04;100409.63;4478539;32;33785;-70
2023/10/01 10:42:33;;;;;;;3.65;1.58;;;;;;;21.43;38.51;100408.09;4412063;32;33442;-71
2023/10/01 10:45:21;;;;;;;4.07;1.30;;;;;;;21.67;37.79;100401.78;4414069;32;33189;-70
2023/10/01 10:48:04;;;;;;;4.60;1.67;;;;;;;21.88;37.67;100396.69;4409959;32;33759;-73
2023/10/01 10:50:50;;;;;;;6.07;2.15;;;;;;;21.69;37.91;100405.22;4412468;32;33457;-72
2023/10/01 10:53:37;;;;;;;3.75;1.60;;;;;;;21.38;38.12;100405.91;4416348;32;33571;-72
2023/10/01 10:56:07;;;;;;;4.40;1.67;;;;;;;21.86;38.01;100401.44;4416321;32;34360;-73
2023/10/01 10:58:39;;;;;;;3.83;1.87;;;;;;;21.94;38.41;100397.88;4411935;32;35031;-72
2023/10/01 11:01:22;;;;;;;4.32;1.85;;;;;;;21.49;39.06;100394.66;4415080;32;33860;-73
2023/10/01 11:03:57;;;;;;;4.35;2.22;;;;;;;21.26;39.75;100397.16;4368032;32;33599;-72
2023/10/01 11:07:01;;;;;;;11.25;2.28;;;;;;;21.76;40.01;100393.44;4373092;32;33384;-72
2023/10/01 11:09:31;;;;;;;8.68;1.27;;;;;;;22.31;38.31;100384.53;4373494;32;33825;-72
2023/10/01 11:12:01;;;;;;;2.28;1.08;;;;;;;21.48;40.39;100401.12;4370567;32;33619;-71
2023/10/01 11:14:29;;;;;;;5.32;1.55;;;;;;;21.86;38.99;100396.87;4372993;32;34936;-72
2023/10/01 11:16:57;;;;;;;5.22;2.15;;;;;;;22.65;37.57;100401.62;4413012;32;33260;-72
2023/10/01 11:19:35;;;;;;;6.12;2.15;;;;;;;22.41;37.95;100397.13;4441993;32;33664;-72
2023/10/01 11:22:08;;;;;;;5.20;2.03;;;;;;;22.23;38.75;100394.59;4446397;32;33302;-72
2023/10/01 11:24:39;;;;;;;4.85;1.77;;;;;;;22.48;37.13;100392.66;4444368;32;33651;-72
2023/10/01 11:27:14;;;;;;;5.30;1.92;;;;;;;22.76;37.41;100388.44;4443187;32;34856;-72
2023/10/01 11:30:13;;;;;;;4.07;1.98;;;;;;;22.47;38.21;100383.63;4444865;32;33529;-71
2023/10/01 11:35:32;;;;;;;4.53;1.67;;;;;;;22.25;36.99;100368.03;4461908;32;33799;-71
2023/10/01 11:38:20;;;;;;;3.87;1.75;;;;;;;22.09;37.03;100368.87;4467851;32;34199;-70
2023/10/01 11:41:07;;;;;;;6.65;1.42;;;;;;;21.68;37.19;100379.00;4472414;32;33932;-71
2023/10/01 11:43:38;;;;;;;4.62;2.00;;;;;;;22.28;36.52;100370.41;4472449;31;34096;-72
2023/10/01 11:46:19;;;;;;;2.58;1.27;;;;;;;22.34;37.79;100361.50;4482293;32;35416;-72
2023/10/01 11:49:04;;;;;;;5.43;1.87;;;;;;;22.04;37.84;100358.50;4475210;32;33327;-72
2023/10/01 11:51:54;;;;;;;3.60;1.45;;;;;;;22.56;37.27;100346.22;4476274;32;34041;-71
2023/10/01 11:54:52;;;;;;;6.20;1.80;;;;;;;22.53;37.95;100355.63;4477648;32;33993;-72
2023/10/01 11:57:25;;;;;;;3.25;1.25;;;;;;;22.72;36.27;100354.34;4471093;32;34438;-73
2023/10/01 11:59:55;;;;;;;6.60;1.85;;;;;;;22.85;36.61;100345.56;4479116;32;33383;-72
2023/10/01 12:02:29;;;;;;;5.82;1.17;;;;;;;22.74;37.00;100340.53;4472684;32;35020;-72
2023/10/01 12:04:59;;;;;;;2.83;1.15;;;;;;;22.92;36.34;100341.09;4471894;32;34068;-71
2023/10/01 12:07:32;;;;;;;12.15;2.42;;;;;;;23.13;35.08;100335.00;4465917;32;34635;-71
2023/10/01 12:10:04;;;;;;;6.35;2.50;;;;;;;22.41;36.49;100342.56;4474540;32;34005;-72
2023/10/01 12:12:39;;;;;;;5.80;2.60;;;;;;;22.56;36.53;100332.59;4472339;31;34283;-71
2023/10/01 12:17:54;;;;;;;3.80;1.17;;;;;;;22.51;35.41;100319.50;4470659;32;33513;-70
2023/10/01 12:20:22;;;;;;;7.43;1.83;;;;;;;22.20;36.28;100324.06;4468241;32;34405;-70
2023/10/01 12:23:08;;;;;;;6.10;2.45;;;;;;;22.51;35.52;100324.13;4469123;32;33940;-69
2023/10/01 12:25:49;;;;;;;4.37;1.30;;;;;;;22.47;35.70;100318.16;4466621;32;33313;-69
2023/10/01 12:28:19;;;;;;;4.93;1.30;;;;;;;22.48;33.95;100322.59;4473982;32;33611;-70
2023/10/01 12:30:57;;;;;;;5.05;1.70;;;;;;;23.07;33.64;100313.88;4473752;31;34488;-69
2023/10/01 12:33:58;;;;;;;5.37;1.08;;;;;;;22.10;34.29;100307.87;4479304;32;33937;-73
2023/10/01 12:39:27;;;;;;;6.12;1.35;;;;;;;22.20;33.20;100304.97;4426988;32;34668;-70
2023/10/01 12:44:31;;;;;;;4.20;1.30;;;;;;;22.50;33.75;100309.62;4431327;32;33703;-70